createdAt,value
2022-08-24T00:01:10.721Z,99.90
2022-08-24T00:03:39.365Z,99.90
2022-08-24T00:06:09.187Z,99.90
2022-08-24T00:08:37.449Z,99.90
2022-08-24T00:11:04.968Z,99.90
2022-08-24T00:13:32.543Z,99.90
2022-08-24T00:16:03.800Z,99.90
2022-08-24T00:18:30.603Z,99.90
2022-08-24T00:20:57.431Z,99.90
2022-08-24T00:23:24.174Z,99.90
2022-08-24T00:25:51.878Z,99.90
2022-08-24T00:28:18.618Z,99.90
2022-08-24T00:30:45.371Z,99.90
2022-08-24T00:33:12.171Z,99.90
2022-08-24T00:35:39.765Z,99.90
2022-08-24T00:38:06.770Z,99.90
2022-08-24T00:40:37.388Z,99.90
2022-08-24T00:43:06.295Z,99.90
2022-08-24T00:45:40.651Z,99.90
2022-08-24T00:48:14.827Z,99.90
2022-08-24T00:51:03.651Z,99.90
2022-08-24T00:53:42.850Z,99.90
2022-08-24T00:56:14.944Z,99.90
2022-08-24T00:58:46.543Z,99.90
2022-08-24T01:01:19.851Z,99.90
2022-08-24T01:03:46.906Z,99.90
2022-08-24T01:06:14.429Z,99.90
2022-08-24T01:08:41.774Z,99.90
2022-08-24T01:11:12.624Z,99.90
2022-08-24T01:13:43.588Z,99.90
2022-08-24T01:16:13.097Z,99.90
2022-08-24T01:18:49.752Z,99.90
2022-08-24T01:21:45.311Z,99.90
2022-08-24T01:24:14.196Z,99.90
2022-08-24T01:26:46.135Z,99.90
2022-08-24T01:29:23.768Z,99.90
2022-08-24T01:31:51.175Z,99.90
2022-08-24T01:34:18.058Z,99.90
2022-08-24T01:36:48.550Z,99.90
2022-08-24T01:39:20.688Z,99.90
2022-08-24T01:41:48.685Z,99.90
2022-08-24T01:44:15.596Z,99.90
2022-08-24T01:46:47.409Z,99.90
2022-08-24T01:49:15.247Z,99.90
2022-08-24T01:51:42.414Z,99.90
2022-08-24T01:54:09.867Z,99.90
2022-08-24T01:56:36.754Z,99.90
2022-08-24T01:59:05.715Z,99.90
2022-08-24T02:01:37.435Z,99.90
2022-08-24T02:04:06.451Z,99.90
2022-08-24T02:06:37.415Z,99.90
2022-08-24T02:09:05.477Z,99.90
2022-08-24T02:11:32.920Z,99.90
2022-08-24T06:46:58.704Z,99.90
2022-08-24T06:49:25.719Z,99.90
2022-08-24T06:51:52.434Z,99.90
2022-08-24T06:54:20.952Z,99.90
2022-08-24T06:56:47.734Z,99.90
2022-08-24T06:59:14.886Z,99.90
2022-08-24T07:01:41.754Z,99.90
2022-08-24T07:04:08.603Z,99.90
2022-08-24T07:06:35.750Z,99.90
2022-08-24T07:09:02.546Z,99.90
2022-08-24T07:11:29.372Z,99.90
2022-08-24T07:13:56.117Z,99.90
2022-08-24T07:16:23.384Z,99.90
2022-08-24T07:18:50.840Z,99.90
2022-08-24T07:21:20.991Z,99.90
2022-08-24T07:23:49.491Z,99.90
2022-08-24T07:26:22.632Z,99.90
2022-08-24T07:28:56.088Z,99.90
2022-08-24T07:31:22.884Z,99.90
2022-08-24T07:33:49.645Z,99.90
2022-08-24T07:36:22.728Z,99.90
2022-08-24T07:38:52.371Z,99.90
2022-08-24T07:41:40.411Z,99.90
2022-08-24T07:44:08.602Z,99.90
2022-08-24T07:46:35.946Z,99.90
2022-08-24T07:49:19.266Z,99.90
2022-08-24T07:51:53.199Z,99.90
2022-08-24T07:54:20.831Z,99.90
2022-08-24T07:56:47.975Z,99.90
2022-08-24T07:59:14.691Z,99.90
2022-08-24T08:01:42.259Z,99.90
2022-08-24T08:04:09.583Z,99.90
2022-08-24T08:06:36.776Z,99.90
2022-08-24T08:09:05.524Z,99.90
2022-08-24T08:11:32.811Z,99.90
2022-08-24T08:13:59.945Z,99.90
2022-08-24T08:16:27.750Z,99.90
2022-08-24T08:19:11.030Z,99.90
2022-08-24T08:22:02.152Z,99.90
2022-08-24T08:24:28.940Z,99.90
2022-08-24T08:26:55.796Z,99.90
2022-08-24T08:29:24.844Z,99.90
2022-08-24T08:31:52.302Z,99.90
2022-08-24T08:34:19.772Z,99.90
2022-08-24T08:36:47.119Z,99.90
2022-08-24T08:39:17.231Z,99.90
2022-08-24T08:42:14.316Z,98.60
2022-08-24T08:44:43.756Z,98.30
2022-08-24T08:47:45.151Z,98.40
2022-08-24T08:50:33.247Z,99.30
2022-08-24T08:53:08.505Z,98.90
2022-08-24T08:55:41.170Z,99.90
2022-08-24T08:58:26.321Z,98.20
2022-08-24T09:01:01.644Z,97.50
2022-08-24T09:03:56.541Z,96.60
2022-08-24T09:06:51.237Z,96.50
2022-08-24T09:09:21.043Z,95.50
2022-08-24T09:12:13.891Z,95.30
2022-08-24T09:14:58.671Z,95.20
2022-08-24T09:17:53.326Z,95.10
2022-08-24T09:20:38.068Z,94.80
2022-08-24T09:23:44.375Z,92.80
2022-08-24T09:26:36.847Z,94.70
2022-08-24T09:29:10.784Z,93.00
2022-08-24T09:31:58.560Z,92.40
2022-08-24T09:34:25.251Z,92.30
2022-08-24T09:37:00.831Z,92.30
2022-08-24T09:39:55.393Z,92.80
2022-08-24T09:42:31.146Z,91.40
2022-08-24T09:45:16.426Z,92.60
2022-08-24T09:48:04.281Z,93.10
2022-08-24T09:50:57.335Z,90.20
2022-08-24T09:53:51.066Z,87.50
2022-08-24T09:56:29.831Z,87.70
2022-08-24T09:59:18.695Z,86.90
2022-08-24T10:02:21.754Z,88.10
2022-08-24T10:05:08.828Z,81.60
2022-08-24T10:07:49.332Z,83.80
2022-08-24T10:10:36.070Z,86.00
2022-08-24T10:13:13.670Z,86.80
2022-08-24T10:15:54.139Z,83.90
2022-08-24T10:18:35.801Z,87.10
2022-08-24T10:21:17.499Z,85.90
2022-08-24T10:24:15.235Z,86.60
2022-08-24T10:27:19.098Z,86.60
2022-08-24T10:30:07.259Z,80.10
2022-08-24T10:33:12.577Z,86.40
2022-08-24T10:36:14.711Z,84.90
2022-08-24T10:39:09.931Z,82.70
2022-08-24T10:42:38.372Z,87.70
2022-08-24T10:45:11.154Z,80.60
2022-08-24T10:47:46.109Z,81.40
2022-08-24T10:50:31.018Z,81.30
2022-08-24T10:53:19.967Z,83.20
2022-08-24T10:55:51.245Z,75.80
2022-08-24T10:58:37.227Z,81.40
2022-08-24T11:01:21.417Z,78.80
2022-08-24T11:03:56.226Z,75.90
2022-08-24T11:06:27.212Z,82.00
2022-08-24T11:08:58.542Z,81.10
2022-08-24T11:11:33.132Z,83.40
2022-08-24T11:14:22.091Z,81.20
2022-08-24T11:16:52.561Z,80.60
2022-08-24T11:19:27.372Z,81.50
2022-08-24T11:21:58.055Z,77.20
2022-08-24T11:24:39.410Z,79.80
2022-08-24T11:27:30.114Z,80.50
2022-08-24T11:30:00.934Z,82.10
2022-08-24T11:32:39.957Z,79.10
2022-08-24T11:35:35.593Z,79.00
2022-08-24T11:38:31.538Z,76.60
2022-08-24T11:41:30.297Z,79.40
2022-08-24T11:44:19.761Z,79.80
2022-08-24T11:47:04.208Z,69.10
2022-08-24T11:49:36.802Z,71.90
2022-08-24T11:52:15.706Z,77.20
2022-08-24T11:54:42.410Z,79.40
2022-08-24T11:57:21.452Z,78.80
2022-08-24T11:59:55.383Z,78.30
2022-08-24T12:02:59.063Z,76.90
2022-08-24T12:05:49.790Z,77.30
2022-08-24T12:08:45.782Z,79.80
2022-08-24T12:11:31.350Z,75.20
2022-08-24T12:14:22.774Z,75.80
2022-08-24T12:16:59.223Z,70.20
2022-08-24T12:19:33.590Z,72.30
2022-08-24T12:22:06.559Z,75.30
2022-08-24T12:24:51.829Z,77.30
2022-08-24T12:27:24.431Z,78.90
2022-08-24T12:30:05.952Z,80.30
2022-08-24T12:32:41.855Z,77.10
2022-08-24T12:35:27.364Z,76.90
2022-08-24T12:38:08.371Z,76.10
2022-08-24T12:40:53.414Z,80.20
2022-08-24T12:43:42.043Z,79.00
2022-08-24T12:46:12.959Z,77.00
2022-08-24T12:48:45.653Z,76.30
2022-08-24T12:51:31.095Z,74.90
2022-08-24T12:54:17.787Z,77.90
2022-08-24T12:57:10.744Z,75.50
2022-08-24T12:59:49.164Z,77.90
2022-08-24T13:02:18.898Z,78.50
2022-08-24T13:04:48.635Z,74.80
2022-08-24T13:07:21.461Z,77.10
2022-08-24T13:09:56.828Z,77.10
2022-08-24T13:12:39.591Z,73.20
2022-08-24T13:15:21.350Z,74.40
2022-08-24T13:17:53.547Z,76.90
2022-08-24T13:20:29.108Z,74.70
2022-08-24T13:23:05.102Z,78.90
2022-08-24T13:26:18.018Z,75.40
2022-08-24T13:28:48.735Z,76.60
2022-08-24T13:31:20.684Z,77.60
2022-08-24T13:34:00.597Z,78.20
2022-08-24T13:36:42.678Z,77.60
2022-08-24T13:39:34.932Z,77.30
2022-08-24T13:42:23.559Z,73.80
2022-08-24T13:45:01.695Z,77.20
2022-08-24T13:47:44.487Z,78.70
2022-08-24T13:50:40.858Z,80.50
2022-08-24T13:53:34.994Z,77.50
2022-08-24T13:56:22.798Z,76.40
2022-08-24T13:59:09.667Z,80.10
2022-08-24T14:02:02.875Z,78.00
2022-08-24T14:04:40.216Z,82.00
2022-08-24T14:07:43.558Z,79.80
2022-08-24T14:10:23.115Z,78.00
2022-08-24T14:13:00.989Z,78.10
2022-08-24T14:15:48.466Z,76.50
2022-08-24T14:18:28.494Z,80.60
2022-08-24T14:21:09.753Z,81.00
2022-08-24T14:23:46.069Z,82.70
2022-08-24T14:26:35.088Z,81.60
2022-08-24T14:29:19.820Z,83.10
2022-08-24T14:32:00.059Z,83.00
2022-08-24T14:34:48.874Z,81.80
2022-08-24T14:37:18.449Z,83.50
2022-08-24T14:40:03.381Z,85.60
2022-08-24T14:42:39.330Z,84.00
2022-08-24T14:45:10.413Z,84.50
2022-08-24T14:47:58.013Z,85.50
2022-08-24T14:50:45.867Z,85.80
2022-08-24T14:53:37.819Z,83.60
2022-08-24T14:56:10.982Z,84.30
2022-08-24T14:58:51.963Z,84.80
2022-08-24T15:01:37.485Z,86.30
2022-08-24T15:04:13.022Z,87.00
2022-08-24T15:06:39.830Z,85.20
2022-08-24T15:09:11.955Z,88.10
2022-08-24T15:11:41.133Z,86.30
2022-08-24T15:14:22.585Z,88.00
2022-08-24T15:17:12.501Z,87.40
2022-08-24T15:19:57.873Z,90.30
2022-08-24T15:22:26.916Z,88.50
2022-08-24T15:25:31.368Z,89.60
2022-08-24T15:28:06.024Z,89.90
2022-08-24T15:30:36.964Z,90.00
2022-08-24T15:33:19.137Z,90.00
2022-08-24T15:36:03.268Z,90.70
2022-08-24T15:38:30.085Z,90.40
2022-08-24T15:41:12.630Z,90.80
2022-08-24T15:43:49.319Z,91.20
2022-08-24T15:46:21.232Z,90.90
2022-08-24T15:48:50.576Z,91.20
2022-08-24T15:51:33.588Z,91.80
2022-08-24T15:54:15.833Z,91.90
2022-08-24T15:56:47.604Z,91.30
2022-08-24T15:59:28.210Z,91.30
2022-08-24T16:02:28.051Z,91.30
2022-08-24T16:05:19.247Z,90.90
2022-08-24T16:08:04.725Z,91.50
2022-08-24T16:10:56.661Z,91.60
2022-08-24T16:13:29.931Z,91.80
2022-08-24T16:16:01.891Z,92.10
2022-08-24T16:19:13.879Z,91.60
2022-08-24T16:21:51.220Z,91.80
2022-08-24T16:24:21.347Z,92.70
2022-08-24T16:26:48.009Z,92.10
2022-08-24T16:29:36.431Z,92.70
2022-08-24T16:32:22.214Z,92.00
2022-08-24T16:35:01.682Z,91.80
2022-08-24T16:37:28.402Z,92.30
2022-08-24T16:39:55.173Z,92.40
2022-08-24T16:42:30.649Z,93.10
2022-08-24T16:44:58.914Z,92.90
2022-08-24T16:47:27.447Z,92.50
2022-08-24T16:49:54.798Z,92.70
2022-08-24T16:52:24.277Z,92.60
2022-08-24T16:54:51.211Z,92.50
2022-08-24T16:57:22.704Z,92.00
2022-08-24T16:59:51.908Z,92.30
2022-08-24T17:02:21.553Z,92.60
2022-08-24T17:04:49.051Z,92.80
2022-08-24T17:07:24.533Z,93.40
2022-08-24T17:09:51.986Z,93.40
2022-08-24T17:12:19.356Z,93.20
2022-08-24T17:14:46.108Z,93.30
2022-08-24T17:17:15.969Z,93.30
2022-08-24T17:19:43.927Z,93.50
2022-08-24T17:22:16.050Z,93.60
2022-08-24T17:24:44.174Z,93.20
2022-08-24T17:27:12.146Z,93.40
2022-08-24T17:29:39.415Z,93.80
2022-08-24T17:32:06.785Z,93.80
2022-08-24T17:34:33.824Z,94.00
2022-08-24T17:37:01.355Z,94.30
2022-08-24T17:39:29.050Z,94.70
2022-08-24T17:41:57.283Z,95.10
2022-08-24T17:44:26.866Z,95.20
2022-08-24T17:46:57.648Z,95.20
2022-08-24T17:49:25.975Z,95.60
2022-08-24T17:51:53.824Z,95.60
2022-08-24T17:54:21.801Z,95.90
2022-08-24T17:56:50.885Z,95.60
2022-08-24T17:59:24.894Z,95.50
2022-08-24T18:02:01.747Z,95.40
2022-08-24T18:04:30.742Z,95.30
2022-08-24T18:07:01.255Z,95.40
2022-08-24T18:09:33.000Z,95.20
2022-08-24T18:12:05.345Z,95.20
2022-08-24T18:14:34.431Z,95.10
2022-08-24T18:17:15.187Z,95.10
2022-08-24T18:19:42.091Z,95.20
2022-08-24T18:22:08.962Z,95.40
2022-08-24T18:24:36.079Z,95.40
2022-08-24T18:27:22.022Z,95.60
2022-08-24T18:29:52.326Z,95.70
2022-08-24T18:32:21.822Z,96.50
2022-08-24T18:34:48.861Z,97.50
2022-08-24T18:37:15.688Z,98.40
2022-08-24T18:39:42.452Z,99.00
2022-08-24T18:42:11.290Z,99.10
2022-08-24T18:44:39.300Z,99.50
2022-08-24T18:47:07.119Z,99.80
2022-08-24T18:49:35.535Z,99.90
2022-08-24T18:52:03.544Z,99.90
2022-08-24T18:54:35.733Z,99.90
2022-08-24T18:57:04.135Z,99.90
2022-08-24T18:59:30.871Z,99.90
2022-08-24T19:02:17.159Z,99.90
2022-08-24T19:04:47.979Z,99.90
2022-08-24T19:07:17.832Z,99.90
2022-08-24T19:09:44.589Z,99.90
2022-08-24T19:12:11.511Z,99.90
2022-08-24T19:14:38.367Z,99.90
2022-08-24T19:17:06.617Z,99.90
2022-08-24T19:19:33.509Z,99.90
2022-08-24T19:22:02.480Z,99.90
2022-08-24T19:24:31.273Z,99.90
2022-08-24T19:27:01.145Z,99.90
2022-08-24T19:29:54.418Z,99.90
2022-08-24T19:32:22.418Z,99.90
2022-08-24T19:34:50.379Z,99.90
2022-08-24T19:37:17.242Z,99.90
2022-08-24T19:39:44.513Z,99.90
2022-08-24T19:42:13.527Z,99.90
2022-08-24T19:44:59.523Z,99.90
2022-08-24T19:47:26.508Z,99.90
2022-08-24T19:49:53.333Z,99.90
2022-08-24T19:52:20.459Z,99.90
2022-08-24T19:54:47.671Z,99.90
2022-08-24T19:57:41.662Z,99.90
2022-08-24T20:00:17.389Z,99.90
2022-08-24T20:02:45.823Z,99.90
2022-08-24T20:05:12.720Z,99.90
2022-08-24T20:07:39.647Z,99.90
2022-08-24T20:10:12.565Z,99.90
2022-08-24T20:12:40.315Z,99.90
2022-08-24T20:15:07.978Z,99.90
2022-08-24T20:17:36.367Z,99.90
2022-08-24T20:20:05.372Z,99.90
2022-08-24T20:22:32.175Z,99.90
2022-08-24T20:24:58.990Z,99.90
2022-08-24T20:27:27.883Z,99.90
2022-08-24T20:29:55.806Z,99.90
2022-08-24T20:32:22.860Z,99.90
2022-08-24T20:34:49.972Z,99.90
2022-08-24T20:37:25.828Z,99.90
2022-08-24T20:39:55.406Z,99.90
2022-08-24T20:42:26.745Z,99.90
2022-08-24T20:44:55.003Z,99.90
2022-08-24T20:47:22.431Z,99.90
2022-08-24T20:49:49.666Z,99.90
2022-08-24T20:52:16.952Z,99.90
2022-08-24T20:54:43.779Z,99.90
2022-08-24T20:57:16.744Z,99.90
2022-08-24T20:59:43.669Z,99.90
2022-08-24T21:02:10.498Z,99.90
2022-08-24T21:04:37.742Z,99.90
2022-08-24T21:07:04.706Z,99.90
2022-08-24T21:09:31.977Z,99.90
2022-08-24T21:11:58.766Z,99.90
2022-08-24T21:14:25.483Z,99.90
2022-08-24T21:16:52.787Z,99.90
2022-08-24T21:19:20.191Z,99.90
2022-08-24T21:21:47.246Z,99.90
2022-08-24T21:24:15.561Z,99.90
2022-08-24T21:26:42.688Z,99.90
2022-08-24T21:29:10.401Z,99.90
2022-08-24T21:31:38.200Z,99.90
2022-08-24T21:34:24.364Z,99.90
2022-08-24T21:36:54.379Z,99.90
2022-08-24T21:39:21.531Z,99.90
2022-08-24T21:41:48.312Z,99.90
2022-08-24T21:44:15.070Z,99.90
2022-08-24T21:46:41.943Z,99.90
2022-08-24T21:49:11.525Z,99.90
2022-08-24T21:51:39.276Z,99.90
2022-08-24T21:54:06.022Z,99.90
2022-08-24T21:56:33.212Z,99.90
2022-08-24T21:59:00.933Z,99.90
2022-08-24T22:01:28.772Z,99.90
2022-08-24T22:03:58.126Z,99.90
2022-08-24T22:06:29.237Z,99.90
2022-08-24T22:08:58.167Z,99.90
2022-08-24T22:11:24.894Z,99.90
2022-08-24T22:13:52.475Z,99.90
2022-08-24T22:16:20.582Z,99.90
2022-08-24T22:18:48.034Z,99.90
2022-08-24T22:21:18.525Z,99.90
2022-08-24T22:23:45.315Z,99.90
2022-08-24T22:26:12.523Z,99.90
2022-08-24T22:28:41.039Z,99.90
2022-08-24T22:31:20.627Z,99.90
2022-08-24T22:33:48.960Z,99.90
2022-08-24T22:36:16.221Z,99.90
2022-08-24T22:38:44.064Z,99.90
2022-08-24T22:41:11.128Z,99.90
2022-08-24T22:43:57.143Z,99.90
2022-08-24T22:46:25.968Z,99.90
2022-08-24T22:48:53.145Z,99.90
2022-08-24T22:51:20.329Z,99.90
2022-08-24T22:53:47.147Z,99.90
2022-08-24T22:56:23.101Z,99.90
2022-08-24T22:58:50.550Z,99.90
2022-08-24T23:01:23.911Z,99.90
2022-08-24T23:03:52.507Z,99.90
2022-08-24T23:06:19.918Z,99.90
2022-08-24T23:08:46.900Z,99.90
2022-08-24T23:11:14.834Z,99.90
2022-08-24T23:13:41.908Z,99.90
2022-08-24T23:16:11.470Z,99.90
2022-08-24T23:18:57.152Z,99.90
2022-08-24T23:21:24.696Z,99.90
2022-08-24T23:23:54.917Z,99.90
2022-08-24T23:26:22.645Z,99.90
2022-08-24T23:28:50.342Z,99.90
2022-08-24T23:31:19.545Z,99.90
2022-08-24T23:33:46.677Z,99.90
2022-08-24T23:36:16.970Z,99.90
2022-08-24T23:38:44.284Z,99.90
2022-08-24T23:41:14.255Z,99.90
2022-08-24T23:43:41.951Z,99.90
2022-08-24T23:46:10.241Z,99.90
2022-08-24T23:48:38.395Z,99.90
2022-08-24T23:51:08.698Z,99.90
2022-08-24T23:53:35.841Z,99.90
2022-08-24T23:56:10.940Z,99.90
2022-08-24T23:58:41.189Z,99.90
